createdAt,value
2023-05-14T08:03:52.514Z,13.518394648829432
2023-05-14T08:08:55.684Z,14.0
2023-05-14T08:08:57.402Z,14.0
2023-05-14T08:08:59.212Z,13.0
2023-05-14T08:09:01.109Z,14.0
2023-05-14T08:09:02.918Z,13.0
2023-05-14T08:09:04.639Z,14.0
2023-05-14T08:09:57.265Z,17.0
2023-05-14T08:09:58.865Z,17.0
2023-05-14T08:25:21.270Z,12.331103678929766
2023-05-14T08:31:46.141Z,12.481605351170568
2023-05-14T08:38:08.276Z,12.357859531772576
2023-05-14T08:44:30.548Z,12.267558528428093
2023-05-14T08:51:48.660Z,11.882943143812708
2023-05-14T08:58:11.790Z,11.933110367892976
2023-05-14T09:04:33.609Z,11.347826086956522
2023-05-14T09:11:02.287Z,12.043478260869565
2023-05-14T09:17:25.990Z,11.518394648829432
2023-05-14T09:23:50.997Z,11.749163879598662
2023-05-14T09:32:59.009Z,11.2876254180602
2023-05-14T09:39:24.633Z,11.725752508361204
2023-05-14T09:45:47.017Z,11.290969899665551
2023-05-14T09:52:07.780Z,11.050167224080267
2023-05-14T09:58:29.453Z,10.923076923076923
2023-05-14T10:04:51.447Z,11.608695652173912
2023-05-14T10:11:42.683Z,11.558528428093645
2023-05-14T10:21:11.342Z,11.568561872909699
2023-05-14T10:33:10.751Z,12.023411371237458
2023-05-14T18:20:25.642Z,14.311036789297658
2023-05-14T18:27:46.102Z,13.966555183946488
2023-05-14T18:35:20.596Z,15.451505016722408
2023-05-14T18:41:44.136Z,16.82608695652174
2023-05-14T18:48:09.945Z,15.137123745819398
2023-05-14T18:56:02.052Z,14.595317725752508
2023-05-14T19:02:29.199Z,14.752508361204013
2023-05-14T19:12:03.863Z,14.809364548494983
2023-05-14T19:18:33.215Z,14.585284280936454
2023-05-14T19:25:11.765Z,16.448160535117058
2023-05-14T19:31:38.140Z,15.602006688963211
2023-05-14T19:37:58.974Z,15.665551839464882
2023-05-14T19:44:20.871Z,15.277591973244148
2023-05-14T19:51:45.844Z,15.939799331103679
2023-05-14T19:58:08.505Z,16.60200668896321
2023-05-14T20:04:29.826Z,15.91304347826087
2023-05-14T20:12:55.312Z,16.474916387959865
2023-05-14T20:24:30.422Z,19.040133779264213
2023-05-14T20:36:31.343Z,18.1438127090301
2023-05-14T21:07:07.425Z,17.588628762541806
2023-05-14T21:13:25.930Z,16.983277591973245
2023-05-14T21:19:44.149Z,16.762541806020067
2023-05-14T21:28:54.159Z,15.608695652173912
2023-05-14T21:35:39.580Z,16.668896321070235
2023-05-14T21:41:58.005Z,16.334448160535118
2023-05-14T21:50:40.867Z,16.77257525083612
2023-05-14T21:57:00.391Z,17.37458193979933
2023-05-14T22:03:19.863Z,18.896321070234112
2023-05-14T22:16:09.292Z,16.82608695652174
2023-05-14T22:27:47.364Z,18.60535117056856
2023-05-14T22:43:15.509Z,18.896321070234112
2023-05-14T22:54:22.340Z,18.795986622073578
2023-05-14T23:06:30.179Z,18.692307692307693
2023-05-14T23:15:28.222Z,19.59531772575251
2023-05-14T23:24:53.584Z,19.51505016722408
2023-05-14T23:31:12.714Z,19.100334448160535
2023-05-14T23:37:30.679Z,20.862876254180602
2023-05-14T23:48:22.356Z,20.468227424749163
2023-05-14T23:54:40.834Z,20.702341137123746
